Time;durP1;ratioP1;P1;durP2;ratioP2;P2;SDS_P1;SDS_P2;PMS_P1;PMS_P2;Temp;Humidity;BMP_temperature;BMP_pressure;BME280_temperature;BME280_humidity;BME280_pressure;Samples;Min_cycle;Max_cycle;Signal;HPM_P1;HPM_P2
2022/06/28 00:00:40;;;;;;;9.13;3.97;;;;;;;19.74;86.37;97033.06;4965567;28;20062;-74
2022/06/28 00:03:07;;;;;;;5.97;3.75;;;;;;;19.90;85.09;97047.22;4966941;28;20062;-75
2022/06/28 00:05:35;;;;;;;9.68;4.15;;;;;;;18.85;85.45;96907.47;4966522;28;20557;-74
2022/06/28 00:08:03;;;;;;;5.57;4.28;;;;;;;19.23;87.10;96995.03;4966821;28;20047;-75
2022/06/28 00:10:30;;;;;;;8.38;4.80;;;;;;;19.52;87.78;97025.03;4965150;28;20505;-75
2022/06/28 00:12:59;;;;;;;5.78;4.28;;;;;;;19.53;88.78;97029.44;4965115;28;20089;-76
2022/06/28 00:18:11;;;;;;;5.22;4.25;;;;;;;19.42;88.81;97040.06;4966567;28;20142;-75
2022/06/28 00:20:38;;;;;;;6.82;4.05;;;;;;;19.58;87.35;97053.44;4965014;28;20047;-75
2022/06/28 00:23:05;;;;;;;5.28;4.15;;;;;;;19.69;87.04;97050.41;4966532;28;20065;-75
2022/06/28 00:25:32;;;;;;;6.25;4.20;;;;;;;19.78;86.55;97048.63;4966403;28;20054;-75
2022/06/28 00:27:59;;;;;;;5.75;4.20;;;;;;;19.40;86.53;96997.56;4964531;28;20526;-76
2022/06/28 00:30:26;;;;;;;6.15;4.63;;;;;;;19.32;87.25;96987.66;4964900;28;20065;-73
2022/06/28 00:32:52;;;;;;;8.95;4.38;;;;;;;18.99;89.16;96965.34;4966459;28;20054;-75
2022/06/28 00:35:19;;;;;;;9.13;4.32;;;;;;;19.35;88.06;97003.66;4965952;28;20051;-76
2022/06/28 00:37:46;;;;;;;5.38;4.00;;;;;;;19.06;87.12;96954.78;4964878;28;20068;-74
2022/06/28 00:40:13;;;;;;;9.82;3.92;;;;;;;19.50;88.16;97035.91;4965056;28;20065;-75
2022/06/28 00:42:40;;;;;;;9.02;4.00;;;;;;;19.31;89.57;97031.03;4965759;28;20522;-76
2022/06/28 00:45:08;;;;;;;6.90;4.35;;;;;;;19.15;90.76;97024.47;4966271;28;20581;-76
2022/06/28 00:47:36;;;;;;;14.50;5.47;;;;;;;19.26;91.58;97053.97;4964673;28;20066;-74
2022/06/28 00:50:03;;;;;;;6.53;4.38;;;;;;;19.33;90.48;97014.53;4964426;28;20058;-75
2022/06/28 00:52:30;;;;;;;5.43;4.90;;;;;;;18.89;90.67;96933.44;4964962;28;20055;-75
2022/06/28 00:54:57;;;;;;;9.40;4.40;;;;;;;19.23;88.55;96976.16;4964608;28;20528;-75
2022/06/28 00:57:24;;;;;;;7.47;4.75;;;;;;;19.68;88.26;97034.78;4966364;28;20460;-74
2022/06/28 00:59:50;;;;;;;6.50;4.28;;;;;;;19.26;89.03;96986.56;4966061;28;20504;-75
2022/06/28 01:02:17;;;;;;;8.32;5.07;;;;;;;19.61;89.06;97034.91;4964765;28;20066;-75
2022/06/28 01:04:44;;;;;;;6.50;4.47;;;;;;;19.63;89.64;97035.28;4964430;28;20055;-75
2022/06/28 01:07:11;;;;;;;4.50;4.03;;;;;;;19.68;87.95;97040.41;4964115;28;20055;-75
2022/06/28 01:09:38;;;;;;;4.63;4.07;;;;;;;18.99;88.48;96921.25;4965827;28;20540;-72
2022/06/28 01:12:05;;;;;;;6.82;4.43;;;;;;;19.51;87.81;97017.81;4965483;28;20055;-75
2022/06/28 01:14:32;;;;;;;10.70;5.20;;;;;;;19.16;90.38;96998.75;4965662;28;20050;-76
2022/06/28 01:16:58;;;;;;;11.70;4.72;;;;;;;19.15;88.94;96997.19;4965316;28;20446;-73
2022/06/28 01:19:25;;;;;;;6.00;4.18;;;;;;;19.33;89.63;97039.81;4965210;28;20605;-75
2022/06/28 01:21:52;;;;;;;9.65;4.45;;;;;;;19.23;90.27;97037.97;4964334;28;20051;-75
2022/06/28 01:24:19;;;;;;;7.68;4.32;;;;;;;19.12;92.33;97031.72;4964055;28;20140;-74
2022/06/28 01:26:46;;;;;;;7.18;4.20;;;;;;;19.19;90.19;97054.06;4965236;28;20061;-75
2022/06/28 01:29:14;;;;;;;6.60;5.00;;;;;;;19.20;90.39;97050.06;4965596;28;20054;-73
2022/06/28 01:31:41;;;;;;;5.03;4.05;;;;;;;19.13;91.53;97027.69;4965661;28;20051;-75
2022/06/28 01:34:08;;;;;;;6.60;4.28;;;;;;;19.09;91.54;97052.25;4963836;28;20527;-75
2022/06/28 01:36:35;;;;;;;6.03;3.63;;;;;;;18.82;91.98;97006.56;4964232;28;20081;-75
2022/06/28 01:39:03;;;;;;;7.60;3.70;;;;;;;19.21;91.48;97048.81;4965246;28;20055;-75
2022/06/28 01:41:33;;;;;;;7.07;4.20;;;;;;;18.24;91.18;96892.00;4965160;28;20478;-75
2022/06/28 01:44:06;;;;;;;4.07;3.67;;;;;;;19.13;90.41;97041.72;4964137;28;20055;-75
2022/06/28 01:46:36;;;;;;;5.72;4.05;;;;;;;19.17;90.03;97039.66;4963840;28;20493;-74
2022/06/28 01:49:04;;;;;;;6.22;4.50;;;;;;;19.15;90.63;97035.69;4963747;28;20430;-75
2022/06/28 01:51:31;;;;;;;7.65;4.07;;;;;;;18.47;92.60;96967.00;4963894;28;20074;-74
2022/06/28 01:53:58;;;;;;;6.90;3.95;;;;;;;19.11;91.77;97046.19;4963803;28;20141;-75
2022/06/28 01:56:25;;;;;;;7.07;3.85;;;;;;;19.18;91.70;97041.25;4964880;28;20059;-72
2022/06/28 01:58:54;;;;;;;6.80;3.97;;;;;;;18.53;91.38;96949.28;4963830;28;20065;-73
2022/06/28 02:01:21;;;;;;;8.35;4.47;;;;;;;18.76;91.73;96980.16;4963708;28;20058;-74
2022/06/28 02:03:49;;;;;;;6.57;3.75;;;;;;;18.67;91.54;96959.50;4965190;28;20059;-75
2022/06/28 02:06:16;;;;;;;6.43;4.20;;;;;;;19.27;91.38;97044.31;4964796;28;20051;-73
2022/06/28 02:08:43;;;;;;;6.07;4.43;;;;;;;18.85;89.98;96982.44;4963856;28;20057;-75
2022/06/28 02:11:10;;;;;;;6.95;4.22;;;;;;;19.21;90.41;97029.16;4965617;28;20057;-74
2022/06/28 02:13:37;;;;;;;4.95;4.30;;;;;;;19.03;91.71;97017.41;4968777;28;20549;-75
2022/06/28 02:16:04;;;;;;;7.45;4.25;;;;;;;18.84;91.63;96981.63;4967275;28;20106;-75
2022/06/28 02:18:31;;;;;;;9.15;4.50;;;;;;;19.21;90.57;97034.78;4967001;28;20058;-75
2022/06/28 02:20:58;;;;;;;5.03;4.53;;;;;;;19.24;90.71;97039.53;4967434;28;20329;-76
2022/06/28 02:23:25;;;;;;;5.40;4.57;;;;;;;19.16;92.01;97038.06;4967287;28;20081;-73
2022/06/28 02:25:52;;;;;;;17.20;4.78;;;;;;;17.09;92.40;96717.97;4968683;28;20062;-73
2022/06/28 02:28:18;;;;;;;9.63;4.63;;;;;;;18.48;91.82;96918.13;4966818;28;20489;-75
2022/06/28 02:30:45;;;;;;;4.38;3.92;;;;;;;18.73;90.88;96969.78;4968282;28;20062;-75
2022/06/28 02:33:12;;;;;;;6.57;4.22;;;;;;;18.93;91.70;97029.63;4968404;28;20117;-76
2022/06/28 02:41:09;;;;;;;8.38;4.90;;;;;;;17.91;94.86;96918.91;4968127;28;20062;-75
2022/06/28 02:43:36;;;;;;;11.45;4.95;;;;;;;18.22;95.25;96949.72;4967772;28;20525;-74
2022/06/28 02:46:02;;;;;;;7.28;4.78;;;;;;;18.82;94.82;97050.66;4968158;28;20066;-75
2022/06/28 02:48:31;;;;;;;7.10;5.30;;;;;;;18.77;93.52;97043.53;4966709;28;20078;-75
2022/06/28 02:50:57;;;;;;;7.78;4.63;;;;;;;18.93;93.87;97048.50;4968075;28;20085;-74
2022/06/28 02:53:24;;;;;;;5.93;5.30;;;;;;;18.45;93.40;96989.88;4967611;28;20149;-73
2022/06/28 02:55:51;;;;;;;11.15;5.68;;;;;;;18.43;93.88;96995.09;4966851;28;20461;-76
2022/06/28 02:58:18;;;;;;;7.82;5.60;;;;;;;18.86;94.47;97048.59;4966258;28;20117;-72
2022/06/28 03:00:44;;;;;;;5.00;4.50;;;;;;;17.84;94.65;96884.59;4967938;28;20061;-75
2022/06/28 03:03:11;;;;;;;7.40;4.25;;;;;;;18.86;93.32;97062.63;4966271;28;20051;-72
2022/06/28 03:05:38;;;;;;;7.15;4.43;;;;;;;18.48;94.00;97008.66;4968007;28;20054;-76
2022/06/28 03:08:08;;;;;;;6.97;4.40;;;;;;;17.84;94.71;96929.44;4967790;28;20136;-75
2022/06/28 03:10:35;;;;;;;9.13;6.22;;;;;;;18.15;95.32;96995.47;4966297;28;20078;-74
2022/06/28 03:13:02;;;;;;;7.25;4.68;;;;;;;18.69;94.92;97064.47;4968037;28;20062;-76
2022/06/28 03:15:29;;;;;;;5.63;4.25;;;;;;;18.36;95.81;97017.63;4967966;28;20053;-74
2022/06/28 03:17:57;;;;;;;9.15;4.20;;;;;;;18.65;96.74;97069.34;4967456;28;20594;-75
2022/06/28 03:20:24;;;;;;;8.57;4.80;;;;;;;18.80;95.19;97072.75;4967836;28;20055;-75
2022/06/28 03:22:51;;;;;;;8.45;4.20;;;;;;;18.33;94.11;96990.44;4967314;28;20058;-75
2022/06/28 03:25:18;;;;;;;9.32;4.45;;;;;;;18.99;94.16;97072.84;4967701;28;20062;-72
2022/06/28 03:27:44;;;;;;;4.95;4.32;;;;;;;19.19;92.63;97070.16;4967717;28;20050;-76
2022/06/28 03:30:11;;;;;;;7.53;4.88;;;;;;;19.22;92.43;97080.53;4967721;28;20167;-72
2022/06/28 03:32:39;;;;;;;4.95;4.45;;;;;;;19.30;92.70;97071.56;4967585;28;20054;-74
2022/06/28 03:35:07;;;;;;;5.63;4.45;;;;;;;18.74;90.40;96971.41;4965840;28;20505;-75
2022/06/28 03:37:34;;;;;;;7.15;4.28;;;;;;;16.80;90.92;96652.41;4966147;28;20063;-75
2022/06/28 03:40:02;;;;;;;9.45;4.35;;;;;;;19.76;89.55;97069.97;4967273;28;20054;-75
2022/06/28 03:42:29;;;;;;;5.78;4.53;;;;;;;19.65;88.65;97039.22;4966715;28;20058;-72
2022/06/28 03:44:56;;;;;;;7.80;4.63;;;;;;;19.74;87.69;97033.06;4966976;28;20532;-75
2022/06/28 03:47:23;;;;;;;4.50;4.10;;;;;;;19.88;85.51;96999.03;4967076;28;20070;-74
2022/06/28 03:49:50;;;;;;;5.88;3.85;;;;;;;19.86;83.83;96957.31;4966914;28;20058;-72
2022/06/28 03:52:17;;;;;;;7.97;3.97;;;;;;;20.65;83.44;97053.69;4966662;28;20415;-74
2022/06/28 03:54:44;;;;;;;4.97;4.43;;;;;;;20.67;82.44;97029.53;4965484;28;20054;-73
2022/06/28 03:57:10;;;;;;;6.40;4.60;;;;;;;20.84;81.52;97033.94;4966852;28;20125;-75
2022/06/28 03:59:37;;;;;;;9.10;5.10;;;;;;;21.07;81.96;97071.66;4966691;28;20054;-72
2022/06/28 04:02:04;;;;;;;6.22;4.68;;;;;;;20.96;81.29;97029.66;4966799;28;20058;-75
2022/06/28 04:04:32;;;;;;;7.43;5.30;;;;;;;21.34;80.84;97067.34;4965482;28;20067;-75
2022/06/28 04:06:59;;;;;;;7.80;4.80;;;;;;;21.53;80.72;97063.66;4966929;28;20059;-75
2022/06/28 04:09:26;;;;;;;6.82;4.60;;;;;;;21.62;79.60;97066.66;4966983;28;20061;-73
2022/06/28 04:11:53;;;;;;;5.05;4.50;;;;;;;21.48;78.80;97010.63;4966473;28;20569;-75
2022/06/28 04:14:21;;;;;;;8.90;4.28;;;;;;;21.99;78.18;97063.25;4965134;28;20062;-74
2022/06/28 04:16:47;;;;;;;7.57;4.90;;;;;;;21.97;77.04;97060.06;4966470;28;20046;-74
2022/06/28 04:19:14;;;;;;;4.93;4.50;;;;;;;21.78;77.06;97012.28;4964771;28;20059;-74
2022/06/28 04:21:41;;;;;;;5.55;4.88;;;;;;;22.11;76.75;97042.75;4966902;28;20549;-76
2022/06/28 04:24:08;;;;;;;7.32;5.50;;;;;;;21.47;76.93;96947.03;4965122;28;20285;-75
2022/06/28 04:26:35;;;;;;;9.13;5.15;;;;;;;22.31;76.35;97057.50;4964843;28;20529;-75
2022/06/28 04:29:02;;;;;;;7.43;5.28;;;;;;;22.14;76.47;97027.78;4966243;28;20106;-71
2022/06/28 04:31:29;;;;;;;8.40;4.90;;;;;;;22.43;76.02;97048.28;4965218;28;20061;-73
2022/06/28 04:33:55;;;;;;;7.10;4.88;;;;;;;21.57;76.34;96962.06;4965764;28;20470;-74
2022/06/28 04:36:23;;;;;;;8.35;5.68;;;;;;;22.18;76.52;97028.44;4966157;28;20066;-71
2022/06/28 04:38:49;;;;;;;9.77;4.90;;;;;;;22.25;76.95;97041.56;4964549;28;20051;-72
2022/06/28 04:41:17;;;;;;;7.65;5.15;;;;;;;21.82;77.05;96960.19;4964693;28;20433;-74
2022/06/28 04:43:44;;;;;;;6.97;4.45;;;;;;;22.34;77.25;97056.63;4965790;28;20081;-72
2022/06/28 04:46:12;;;;;;;7.82;4.95;;;;;;;22.39;76.80;97052.44;4966225;28;20259;-75
2022/06/28 04:48:38;;;;;;;9.68;5.22;;;;;;;22.24;73.78;97000.47;4966107;28;20047;-74
2022/06/28 04:51:11;;;;;;;7.00;4.15;;;;;;;22.93;72.04;97041.13;4964932;28;20061;-73
2022/06/28 04:53:40;;;;;;;9.20;5.38;;;;;;;22.68;68.40;96993.13;4964702;28;20066;-75
2022/06/28 04:56:07;;;;;;;10.43;6.75;;;;;;;23.43;67.21;97058.09;4964603;28;20051;-72
2022/06/28 04:58:34;;;;;;;7.78;4.60;;;;;;;23.59;66.83;97072.09;4965584;28;20054;-74
2022/06/28 05:01:02;;;;;;;6.22;5.40;;;;;;;23.80;67.46;97060.06;4965721;28;20085;-75
2022/06/28 05:03:40;;;;;;;9.00;5.82;;;;;;;23.97;67.54;97070.00;4965403;28;20524;-74
2022/06/28 05:06:07;;;;;;;5.22;4.60;;;;;;;23.98;66.29;97031.19;4965989;28;20085;-75
2022/06/28 05:08:34;;;;;;;5.03;4.50;;;;;;;24.35;66.34;97073.47;4965833;28;20425;-77
2022/06/28 05:11:01;;;;;;;7.25;4.30;;;;;;;24.40;65.80;97055.88;4965969;28;20121;-76
2022/06/28 05:13:29;;;;;;;5.95;4.20;;;;;;;24.68;65.46;97043.50;4965824;28;20073;-76
2022/06/28 05:15:55;;;;;;;5.28;4.30;;;;;;;24.92;62.88;97027.59;4965735;28;20596;-73
2022/06/28 05:18:22;;;;;;;11.23;5.72;;;;;;;25.15;66.59;97063.91;4965260;28;20138;-75
2022/06/28 05:20:53;;;;;;;9.15;5.13;;;;;;;24.92;65.96;97021.91;4965637;28;20557;-75
2022/06/28 05:23:20;;;;;;;5.22;4.38;;;;;;;25.49;62.84;97062.16;4964413;28;20321;-74
2022/06/28 05:25:47;;;;;;;8.93;5.97;;;;;;;25.05;62.62;97002.72;4965282;28;20055;-77
2022/06/28 05:28:13;;;;;;;6.80;5.28;;;;;;;25.69;63.50;97063.31;4965552;28;20050;-76
2022/06/28 05:30:40;;;;;;;8.60;5.60;;;;;;;25.91;62.33;97068.91;4964036;28;20065;-73
2022/06/28 05:33:07;;;;;;;9.85;5.82;;;;;;;25.90;64.57;97073.78;4965497;28;20058;-76
2022/06/28 05:35:34;;;;;;;6.25;5.65;;;;;;;25.78;64.65;97082.44;4964779;28;20057;-75
2022/06/28 05:38:02;;;;;;;8.27;4.47;;;;;;;25.03;62.06;96988.25;4963635;28;20062;-64
2022/06/28 05:40:30;;;;;;;5.00;4.50;;;;;;;24.04;61.48;96781.06;4962043;28;20058;-69
2022/06/28 05:42:56;;;;;;;4.95;4.55;;;;;;;25.44;60.23;96944.44;4960885;28;20077;-69
2022/06/28 05:45:23;;;;;;;11.93;4.50;;;;;;;26.20;56.78;97009.59;4961152;28;20077;-62
2022/06/28 05:47:50;;;;;;;7.18;4.90;;;;;;;26.81;57.95;97085.94;4968781;28;20064;-68
2022/06/28 05:50:18;;;;;;;12.05;4.95;;;;;;;26.74;57.04;97057.88;4968212;28;20143;-66
2022/06/28 05:52:45;;;;;;;5.47;4.97;;;;;;;25.75;57.00;97009.56;4957994;28;20054;-60
2022/06/28 05:55:12;;;;;;;17.30;5.68;;;;;;;25.87;58.00;96997.28;4968060;28;20051;-63
2022/06/28 05:57:38;;;;;;;11.73;5.30;;;;;;;26.94;55.59;97089.41;4966809;28;20051;-71
2022/06/28 06:00:06;;;;;;;8.02;4.80;;;;;;;26.43;55.33;97057.25;4968637;28;20573;-66
2022/06/28 06:02:33;;;;;;;35.92;7.57;;;;;;;26.46;54.53;97020.13;4967589;28;20542;-72
2022/06/28 06:05:02;;;;;;;16.48;5.90;;;;;;;26.51;53.41;97035.75;4973479;28;20061;-66
2022/06/28 06:07:30;;;;;;;11.02;5.07;;;;;;;25.83;54.58;96925.69;4962244;28;20424;-60
2022/06/28 06:09:57;;;;;;;6.32;4.80;;;;;;;26.48;54.17;97019.66;4966561;28;20085;-62
2022/06/28 06:12:24;;;;;;;11.13;4.80;;;;;;;26.67;54.36;96995.66;4968292;28;20513;-70
2022/06/28 06:14:50;;;;;;;9.95;5.70;;;;;;;27.24;53.51;97090.41;4968999;28;20062;-66
2022/06/28 06:17:17;;;;;;;6.20;4.75;;;;;;;25.34;54.80;96820.09;4967056;28;20061;-64
2022/06/28 06:19:45;;;;;;;4.70;4.15;;;;;;;27.02;54.40;97102.03;4966693;28;20059;-60
2022/06/28 06:22:12;;;;;;;5.05;4.63;;;;;;;27.10;54.71;97103.28;4968264;28;20059;-61
2022/06/28 06:24:39;;;;;;;6.20;4.28;;;;;;;26.72;53.93;97066.06;4964349;28;20055;-67
2022/06/28 06:27:05;;;;;;;5.28;4.60;;;;;;;27.31;53.67;97095.81;4968899;28;20524;-69
2022/06/28 06:29:32;;;;;;;5.78;4.35;;;;;;;27.21;52.64;97052.34;4971388;28;20058;-68
2022/06/28 06:31:59;;;;;;;4.70;4.20;;;;;;;27.24;54.39;97096.09;4966804;28;20412;-66
2022/06/28 06:34:26;;;;;;;5.53;4.40;;;;;;;26.53;53.18;96965.03;4969625;28;20096;-63
2022/06/28 06:36:53;;;;;;;5.25;4.47;;;;;;;26.97;52.29;96974.69;4962035;28;20049;-77
2022/06/28 06:39:19;;;;;;;4.78;4.38;;;;;;;27.83;51.80;97093.19;4966380;28;20049;-64
2022/06/28 06:41:47;;;;;;;4.65;4.20;;;;;;;27.61;52.46;97086.97;4974819;28;20055;-68
2022/06/28 06:44:13;;;;;;;8.05;4.72;;;;;;;27.60;51.70;97056.16;4958700;28;20589;-76
2022/06/28 06:46:40;;;;;;;7.68;4.35;;;;;;;28.29;50.53;97099.41;4964972;28;20051;-68
2022/06/28 06:49:08;;;;;;;5.45;4.70;;;;;;;27.60;52.12;97096.00;4964268;28;20461;-68
2022/06/28 06:51:35;;;;;;;4.95;4.55;;;;;;;27.09;52.47;97002.16;4966335;28;20051;-66
2022/06/28 06:54:02;;;;;;;6.75;4.47;;;;;;;27.80;52.47;97099.06;4965606;28;20058;-65
2022/06/28 06:56:30;;;;;;;6.93;5.65;;;;;;;26.58;54.31;96992.81;4958727;28;20065;-65
2022/06/28 06:58:57;;;;;;;5.68;5.15;;;;;;;27.31;52.61;97042.53;4971632;28;20086;-68
2022/06/28 07:01:28;;;;;;;8.27;4.57;;;;;;;27.80;51.37;97105.56;4962931;28;20406;-68
2022/06/28 07:04:13;;;;;;;7.00;4.60;;;;;;;27.20;51.83;97018.69;4964987;28;20085;-70
2022/06/28 07:06:41;;;;;;;6.65;4.57;;;;;;;27.59;51.66;97100.91;4959091;28;20150;-78
2022/06/28 07:09:08;;;;;;;6.15;4.50;;;;;;;27.49;52.58;97096.50;4962936;28;20507;-72
2022/06/28 07:11:35;;;;;;;4.78;4.28;;;;;;;27.85;52.11;97089.84;4961651;28;20058;-72
2022/06/28 07:14:02;;;;;;;5.30;4.40;;;;;;;27.17;50.40;96960.72;4963198;28;20043;-75
2022/06/28 07:16:29;;;;;;;5.63;4.72;;;;;;;27.86;52.38;97074.34;4965690;28;20061;-68
2022/06/28 07:18:57;;;;;;;8.13;5.00;;;;;;;28.19;51.82;97032.34;4965541;28;20069;-68
2022/06/28 07:21:25;;;;;;;4.35;3.88;;;;;;;28.93;51.21;97096.78;4961268;28;20061;-65
2022/06/28 07:23:51;;;;;;;6.10;5.50;;;;;;;28.65;50.42;97095.47;4964258;28;20054;-66
2022/06/28 07:26:18;;;;;;;15.98;8.63;;;;;;;28.40;49.77;97051.16;4958723;28;20058;-76
2022/06/28 07:28:46;;;;;;;10.25;7.05;;;;;;;28.82;51.14;97088.00;4965444;28;20133;-64
2022/06/28 07:31:13;;;;;;;21.85;10.38;;;;;;;28.90;50.28;97094.91;4958313;28;20066;-64
2022/06/28 07:33:40;;;;;;;25.13;12.07;;;;;;;28.88;49.16;97098.25;4961785;28;20054;-63
2022/06/28 07:36:07;;;;;;;12.48;6.45;;;;;;;28.77;49.31;97094.41;4972060;28;20053;-75
2022/06/28 07:38:34;;;;;;;6.15;4.50;;;;;;;27.77;51.21;97037.38;4962006;28;20070;-64
2022/06/28 07:41:00;;;;;;;13.50;7.85;;;;;;;28.80;51.31;97102.00;4948299;28;20051;-66
2022/06/28 07:43:27;;;;;;;6.38;5.57;;;;;;;28.43;49.48;97032.28;4963476;28;20059;-74
2022/06/28 07:45:54;;;;;;;15.98;8.77;;;;;;;28.80;51.20;97096.28;4962777;28;20430;-66
2022/06/28 07:48:21;;;;;;;5.40;4.60;;;;;;;28.41;49.38;97017.72;4946701;28;20410;-64
2022/06/28 07:53:33;;;;;;;4.70;4.30;;;;;;;29.17;48.66;97024.09;4947243;28;20462;-66
2022/06/28 07:56:00;;;;;;;6.03;4.60;;;;;;;29.55;46.62;97048.81;4957759;28;20066;-64
2022/06/28 07:58:27;;;;;;;4.68;4.30;;;;;;;30.11;45.22;97099.81;4968419;28;20429;-67
2022/06/28 08:00:54;;;;;;;5.72;4.00;;;;;;;29.26;46.98;97094.56;4966701;28;20087;-70
2022/06/28 08:03:21;;;;;;;4.72;4.28;;;;;;;28.32;48.08;97066.28;4962138;28;20142;-66
2022/06/28 08:05:48;;;;;;;5.50;4.20;;;;;;;28.50;48.22;97100.38;4961026;28;20058;-65
2022/06/28 08:08:15;;;;;;;5.50;4.30;;;;;;;27.46;50.07;96977.94;4963578;28;20438;-66
2022/06/28 08:10:42;;;;;;;4.93;4.35;;;;;;;28.63;50.33;97098.03;4964567;28;20518;-67
2022/06/28 08:13:12;;;;;;;4.32;4.03;;;;;;;29.05;49.06;97107.13;4963720;28;20514;-64
2022/06/28 08:15:44;;;;;;;6.53;4.32;;;;;;;29.25;48.27;97087.25;4965394;28;20054;-65
2022/06/28 08:18:11;;;;;;;7.55;4.82;;;;;;;28.74;48.01;97109.66;4965125;28;20065;-66
2022/06/28 08:20:38;;;;;;;5.90;4.53;;;;;;;27.87;48.00;97042.53;4965073;28;20472;-66
2022/06/28 08:23:05;;;;;;;5.63;4.32;;;;;;;28.78;47.76;97087.44;4963593;28;20155;-66
2022/06/28 08:25:32;;;;;;;4.55;4.18;;;;;;;28.06;48.44;96930.06;4965158;28;20082;-65
2022/06/28 08:27:59;;;;;;;14.30;4.20;;;;;;;28.55;48.32;97096.84;4965185;28;20050;-65
2022/06/28 08:30:27;;;;;;;8.15;4.40;;;;;;;28.25;48.91;96992.56;4965311;28;20057;-71
2022/06/28 08:32:54;;;;;;;8.50;4.40;;;;;;;28.78;46.24;97013.28;4962240;28;20517;-71
2022/06/28 08:35:22;;;;;;;4.20;3.83;;;;;;;29.74;44.50;97093.03;4961062;28;20629;-74
2022/06/28 08:37:49;;;;;;;7.45;5.38;;;;;;;28.79;45.73;97037.66;4963722;28;20078;-67
2022/06/28 08:40:22;;;;;;;6.10;4.30;;;;;;;26.03;46.48;96673.31;4962964;28;20062;-69
2022/06/28 08:42:53;;;;;;;4.65;4.20;;;;;;;29.29;44.20;97082.16;4960434;28;20198;-68
2022/06/28 08:45:21;;;;;;;4.32;3.72;;;;;;;28.93;44.21;97059.69;4963116;28;20061;-67
2022/06/28 08:47:52;;;;;;;4.75;3.90;;;;;;;28.62;45.63;97079.34;4956232;28;20043;-68
2022/06/28 08:50:27;;;;;;;4.45;4.05;;;;;;;28.75;46.62;97088.41;4959691;28;20556;-68
2022/06/28 08:52:56;;;;;;;7.53;4.20;;;;;;;28.93;45.51;97031.97;4960916;28;20051;-68
2022/06/28 08:55:23;;;;;;;6.60;3.80;;;;;;;27.05;43.96;96771.16;4963498;28;20062;-66
2022/06/28 08:57:51;;;;;;;3.70;3.40;;;;;;;29.15;44.52;97082.97;4957417;28;20689;-74
2022/06/28 09:00:18;;;;;;;4.97;3.70;;;;;;;28.24;45.87;97002.38;4954573;28;20725;-68
2022/06/28 09:02:52;;;;;;;5.35;4.15;;;;;;;28.85;44.47;97090.66;4964421;28;20354;-67
2022/06/28 09:05:24;;;;;;;4.93;4.15;;;;;;;28.95;44.88;97040.03;4957813;28;20054;-77
2022/06/28 09:07:53;;;;;;;5.70;3.45;;;;;;;29.28;43.22;97058.53;4963744;28;20050;-72
2022/06/28 09:10:20;;;;;;;4.57;3.95;;;;;;;28.87;43.73;97124.41;4962413;28;20058;-69
2022/06/28 09:13:13;;;;;;;6.05;4.78;;;;;;;29.29;44.01;97082.16;4960646;28;20082;-67
2022/06/28 09:15:51;;;;;;;7.72;4.60;;;;;;;29.77;43.98;97083.44;4963052;28;20095;-65
2022/06/28 09:18:19;;;;;;;4.85;3.85;;;;;;;29.11;43.30;96976.78;4964270;28;20057;-66
2022/06/28 09:20:52;;;;;;;4.65;4.25;;;;;;;30.03;43.68;97090.06;4963654;28;20055;-66
2022/06/28 09:23:39;;;;;;;11.65;4.60;;;;;;;30.36;42.93;97084.81;4964445;28;20062;-65
2022/06/28 09:26:09;;;;;;;4.82;4.10;;;;;;;30.50;43.33;97089.66;4963449;28;20458;-66
2022/06/28 09:28:40;;;;;;;3.92;3.67;;;;;;;29.73;43.10;97088.59;4956307;28;20063;-66
2022/06/28 09:31:25;;;;;;;5.55;4.85;;;;;;;30.39;42.40;97072.38;4961275;28;20065;-65
2022/06/28 09:34:03;;;;;;;5.82;4.35;;;;;;;30.72;41.02;97078.47;4961747;28;20126;-65
2022/06/28 09:36:32;;;;;;;6.47;4.90;;;;;;;30.88;41.81;97075.06;4963050;28;20081;-66
2022/06/28 09:39:16;;;;;;;5.57;4.68;;;;;;;30.23;42.28;97041.50;4964085;28;20093;-66
2022/06/28 09:41:48;;;;;;;5.22;4.47;;;;;;;30.25;41.75;97004.66;4956711;28;20054;-67
2022/06/28 09:44:35;;;;;;;7.35;4.25;;;;;;;29.77;43.06;97036.97;4962495;28;20046;-67
2022/06/28 09:47:05;;;;;;;4.80;4.25;;;;;;;27.09;44.40;96726.28;4963594;28;20510;-67
2022/06/28 09:49:37;;;;;;;6.07;4.35;;;;;;;29.00;44.59;97087.84;4963164;28;20082;-66
2022/06/28 09:52:04;;;;;;;4.57;4.18;;;;;;;28.86;44.31;97051.53;4964157;28;20066;-68
2022/06/28 09:54:35;;;;;;;4.75;4.25;;;;;;;28.73;45.19;97091.75;4964394;28;20066;-68
2022/06/28 09:57:02;;;;;;;4.82;4.43;;;;;;;28.45;45.52;97075.34;4964145;28;20054;-67
2022/06/28 09:59:29;;;;;;;5.90;3.97;;;;;;;28.11;47.49;97096.66;4963683;28;20099;-67
2022/06/28 10:01:56;;;;;;;6.45;5.38;;;;;;;28.09;47.67;97100.00;4962058;28;20502;-67
2022/06/28 10:04:25;;;;;;;5.32;4.40;;;;;;;28.36;47.03;97096.16;4956342;28;20059;-68
2022/06/28 10:06:52;;;;;;;5.55;4.80;;;;;;;28.84;47.49;97085.47;4964233;28;20051;-65
2022/06/28 10:09:20;;;;;;;8.10;5.68;;;;;;;29.27;46.21;97079.00;4960574;28;20050;-69
2022/06/28 10:17:33;;;;;;;5.53;4.03;;;;;;;29.44;44.12;97089.41;4961487;28;20070;-80
2022/06/28 10:20:03;;;;;;;5.68;4.95;;;;;;;29.41;45.05;97084.69;4961051;28;20132;-64
2022/06/28 10:22:30;;;;;;;4.97;4.45;;;;;;;29.44;45.17;97082.91;4961078;28;20206;-66
2022/06/28 10:24:59;;;;;;;10.95;5.47;;;;;;;29.42;46.28;97079.75;4954551;28;20047;-66
2022/06/28 10:27:28;;;;;;;8.93;4.35;;;;;;;29.78;46.45;97065.06;4963415;28;20054;-67
2022/06/28 10:29:58;;;;;;;6.20;4.05;;;;;;;30.34;45.45;97080.88;4960387;28;20050;-71
2022/06/28 10:32:48;;;;;;;4.78;3.72;;;;;;;30.79;42.40;97071.56;4958349;28;20058;-67
2022/06/28 10:35:35;;;;;;;5.20;4.72;;;;;;;30.71;42.01;97007.47;4957132;28;20461;-64
2022/06/28 10:38:08;;;;;;;7.40;4.00;;;;;;;30.56;40.57;97069.69;4957540;28;20083;-73
2022/06/28 10:40:50;;;;;;;4.70;4.28;;;;;;;29.51;42.68;97065.38;4959723;28;20612;-68
2022/06/28 10:43:26;;;;;;;12.45;5.10;;;;;;;29.21;43.21;97063.84;4963878;28;20054;-66
2022/06/28 10:46:06;;;;;;;7.70;4.63;;;;;;;28.91;45.29;97074.44;4957367;28;20097;-63
2022/06/28 10:48:48;;;;;;;5.43;4.40;;;;;;;28.93;44.06;97063.34;4961394;28;20065;-66
2022/06/28 10:51:15;;;;;;;5.63;4.18;;;;;;;28.38;44.13;96941.75;4961941;28;20058;-72
2022/06/28 10:53:54;;;;;;;4.00;3.70;;;;;;;29.73;44.51;97062.91;4965009;28;20058;-64
2022/06/28 10:56:21;;;;;;;7.05;4.50;;;;;;;29.90;43.23;96975.34;4963694;28;20050;-64
2022/06/28 10:58:56;;;;;;;6.25;4.10;;;;;;;30.37;42.37;97002.69;4962084;28;20057;-71
2022/06/28 11:01:44;;;;;;;4.47;3.47;;;;;;;30.90;40.25;97043.06;4962126;28;20066;-68
2022/06/28 11:04:23;;;;;;;7.65;4.32;;;;;;;31.17;40.49;97073.22;4965656;28;20521;-63
2022/06/28 11:06:56;;;;;;;6.85;4.00;;;;;;;30.84;40.01;96945.72;4963900;28;21022;-72
2022/06/28 11:09:48;;;;;;;4.30;4.00;;;;;;;31.46;38.46;97045.13;4955041;28;20506;-64
2022/06/28 11:12:19;;;;;;;6.35;3.67;;;;;;;30.79;39.68;96986.50;4956756;28;20058;-72
2022/06/28 11:14:51;;;;;;;4.25;3.75;;;;;;;30.83;38.65;97038.56;4961360;28;20572;-64
2022/06/28 11:17:32;;;;;;;4.47;3.83;;;;;;;30.84;39.01;97045.84;4964909;28;20054;-64
2022/06/28 11:53:04;;;;;;;6.35;4.85;;;;;;;32.10;39.40;97027.31;5104664;27;20421;-68
2022/06/28 11:56:06;;;;;;;4.63;4.15;;;;;;;31.73;38.64;97023.69;5105794;28;20050;-60
2022/06/28 11:58:38;;;;;;;5.15;4.72;;;;;;;31.66;38.07;96989.81;5079556;28;20515;-61
2022/06/28 12:01:10;;;;;;;5.45;5.05;;;;;;;31.52;38.39;96985.78;5092610;28;20055;-69
2022/06/28 12:03:42;;;;;;;4.78;4.38;;;;;;;30.64;39.71;97020.16;5081648;28;20460;-73
2022/06/28 12:06:18;;;;;;;5.55;5.03;;;;;;;30.79;39.96;97020.84;5081452;28;20490;-69
2022/06/28 12:08:52;;;;;;;6.82;4.82;;;;;;;31.66;39.44;97030.69;5078882;28;20426;-60
2022/06/28 12:11:43;;;;;;;6.30;4.90;;;;;;;32.05;38.53;97023.13;5083406;28;20524;-62
2022/06/28 12:14:13;;;;;;;5.88;4.43;;;;;;;30.46;38.21;96797.44;5080494;28;20400;-61
2022/06/28 12:16:47;;;;;;;6.43;5.00;;;;;;;31.81;37.83;97010.44;5097181;28;20489;-72
2022/06/28 12:19:18;;;;;;;7.20;4.70;;;;;;;31.87;37.55;97017.81;5088517;28;20120;-67
2022/06/28 12:21:58;;;;;;;5.32;4.80;;;;;;;32.09;38.21;97022.88;5089319;28;20064;-70
2022/06/28 12:24:41;;;;;;;6.65;4.47;;;;;;;32.34;38.18;97027.69;5092104;28;20044;-70
2022/06/28 12:27:09;;;;;;;7.80;4.20;;;;;;;31.25;38.45;97028.53;5093805;28;20056;-65
2022/06/28 12:29:36;;;;;;;4.72;4.32;;;;;;;30.93;39.76;97028.53;5079330;28;20048;-69